Statenville, Georgia
Current Conditions -  °F | °C
As of 11:53 AM on Thursday 23 Oct 2014 (Local Time) from KVLD Reporting Station
Clear Clear  
Wind Chill: 68°   Ceiling: Unl
Heat Index: 68°   Visibility: 10mi
Dew Point: 41°   Wind: 6mph
Humidity: 37%   Direction: 100°E
Pressure: 30.11"   Gusts: NA
Location:  30.7°N, 83.03°W
Report Text: KVLD 231553Z 10005KT 10SM CLR 20/05 A3011 RMK AO2 SLP204 T02000050
Loading
Personal Weather Stations






























Interactive Weather Map
Tropical Storm Tracking
New forecast layout! Learn more

10-Day Weather Forecast

Advertisements
Track Severe Weather on mobile